createdAt,value
2022-10-19T00:01:06.960Z,12.90
2022-10-19T00:03:36.138Z,12.70
2022-10-19T00:06:25.822Z,12.60
2022-10-19T00:09:02.585Z,12.60
2022-10-19T00:11:30.698Z,12.70
2022-10-19T00:13:58.437Z,12.70
2022-10-19T00:16:27.667Z,12.50
2022-10-19T00:18:57.941Z,12.50
2022-10-19T00:21:24.756Z,13.00
2022-10-19T00:23:51.529Z,12.80
2022-10-19T00:26:18.433Z,12.40
2022-10-19T00:28:45.798Z,13.20
2022-10-19T00:31:16.257Z,13.10
2022-10-19T00:33:46.684Z,12.00
2022-10-19T00:36:25.297Z,13.30
2022-10-19T00:38:53.184Z,12.80
2022-10-19T00:41:21.757Z,13.10
2022-10-19T00:43:59.139Z,13.00
2022-10-19T00:46:30.850Z,12.10
2022-10-19T00:49:03.232Z,12.90
2022-10-19T00:51:33.151Z,12.90
2022-10-19T00:54:02.292Z,12.00
2022-10-19T00:56:29.123Z,11.50
2022-10-19T00:58:56.387Z,12.70
2022-10-19T01:01:26.464Z,12.90
2022-10-19T01:03:53.366Z,12.10
2022-10-19T01:06:21.196Z,12.70
2022-10-19T01:08:47.978Z,12.90
2022-10-19T01:11:44.098Z,11.80
2022-10-19T01:14:23.188Z,11.90
2022-10-19T01:17:08.004Z,11.80
2022-10-19T01:20:05.796Z,11.80
2022-10-19T01:22:59.534Z,11.90
2022-10-19T01:25:54.030Z,11.90
2022-10-19T01:28:29.779Z,12.00
2022-10-19T01:31:05.925Z,12.00
2022-10-19T01:36:46.023Z,12.10
2022-10-19T01:39:20.597Z,12.00
2022-10-19T01:42:02.402Z,12.00
2022-10-19T01:44:50.810Z,12.10
2022-10-19T01:47:24.090Z,12.10
2022-10-19T01:50:01.975Z,12.60
2022-10-19T01:52:29.879Z,12.30
2022-10-19T01:54:59.686Z,12.90
2022-10-19T01:57:32.399Z,12.70
2022-10-19T01:59:59.365Z,12.40
2022-10-19T02:02:27.959Z,13.10
2022-10-19T02:04:57.535Z,12.50
2022-10-19T02:07:25.500Z,13.40
2022-10-19T02:09:52.279Z,13.10
2022-10-19T02:12:20.986Z,12.10
2022-10-19T02:14:53.253Z,12.60
2022-10-19T02:17:25.467Z,12.20
2022-10-19T02:19:53.782Z,11.90
2022-10-19T02:22:21.873Z,12.60
2022-10-19T02:24:48.657Z,11.90
2022-10-19T02:27:15.554Z,11.60
2022-10-19T02:29:42.409Z,12.50
2022-10-19T02:32:09.882Z,12.50
2022-10-19T02:34:38.637Z,12.10
2022-10-19T02:37:06.152Z,12.80
2022-10-19T02:39:33.236Z,12.40
2022-10-19T02:42:12.354Z,11.90
2022-10-19T02:44:44.327Z,12.60
2022-10-19T02:47:17.385Z,12.10
2022-10-19T02:49:45.255Z,12.10
2022-10-19T02:52:13.669Z,12.80
2022-10-19T02:54:42.659Z,12.20
2022-10-19T02:57:27.445Z,12.20
2022-10-19T02:59:54.217Z,12.20
2022-10-19T03:02:21.488Z,12.30
2022-10-19T03:07:18.127Z,12.80
2022-10-19T03:09:45.429Z,13.10
2022-10-19T03:12:13.488Z,12.50
2022-10-19T03:14:40.179Z,12.90
2022-10-19T03:17:07.096Z,13.30
2022-10-19T03:19:35.547Z,13.50
2022-10-19T03:22:02.553Z,12.70
2022-10-19T03:24:31.191Z,12.80
2022-10-19T03:26:57.912Z,12.70
2022-10-19T03:29:24.703Z,13.10
2022-10-19T03:31:51.596Z,12.20
2022-10-19T03:34:18.339Z,13.70
2022-10-19T03:36:45.198Z,13.40
2022-10-19T03:39:14.505Z,13.20
2022-10-19T03:41:55.402Z,13.60
2022-10-19T03:44:22.144Z,13.00
2022-10-19T03:46:48.911Z,13.20
2022-10-19T03:49:16.132Z,13.90
2022-10-19T03:51:42.921Z,12.90
2022-10-19T03:54:15.028Z,13.80
2022-10-19T03:56:42.450Z,13.00
2022-10-19T03:59:14.252Z,13.00
2022-10-19T04:01:43.984Z,13.90
2022-10-19T04:04:14.612Z,13.70
2022-10-19T04:06:43.615Z,13.30
2022-10-19T04:09:14.104Z,12.60
2022-10-19T04:11:43.814Z,14.00
2022-10-19T04:14:32.740Z,14.00
2022-10-19T04:17:04.020Z,13.00
2022-10-19T04:19:31.737Z,13.20
2022-10-19T04:21:58.987Z,14.00
2022-10-19T04:24:33.003Z,13.30
2022-10-19T08:32:14.692Z,13.60
2022-10-19T08:34:43.568Z,13.60
2022-10-19T08:37:25.957Z,13.60
2022-10-19T08:40:04.615Z,13.70
2022-10-19T08:42:53.718Z,13.70
2022-10-19T08:45:53.638Z,13.80
2022-10-19T08:48:29.920Z,14.00
2022-10-19T08:50:58.521Z,14.10
2022-10-19T08:53:52.311Z,14.10
2022-10-19T08:57:02.093Z,14.20
2022-10-19T08:59:53.055Z,14.40
2022-10-19T09:02:37.166Z,14.40
2022-10-19T09:05:14.412Z,14.60
2022-10-19T09:07:45.712Z,14.50
2022-10-19T09:10:18.964Z,14.80
2022-10-19T09:12:55.023Z,15.00
2022-10-19T09:15:27.607Z,14.90
2022-10-19T09:17:54.669Z,14.70
2022-10-19T09:20:35.557Z,14.70
2022-10-19T09:23:16.294Z,14.80
2022-10-19T09:25:46.367Z,15.10
2022-10-19T09:28:27.350Z,14.70
2022-10-19T09:31:00.438Z,15.00
2022-10-19T09:33:42.987Z,15.10
2022-10-19T09:36:18.337Z,15.30
2022-10-19T09:38:54.601Z,15.20
2022-10-19T09:41:22.842Z,15.40
2022-10-19T09:43:54.433Z,15.70
2022-10-19T09:46:58.090Z,15.70
2022-10-19T09:49:43.679Z,15.80
2022-10-19T09:52:34.963Z,16.20
2022-10-19T09:55:25.291Z,16.30
2022-10-19T09:58:02.303Z,16.40
2022-10-19T10:00:39.573Z,16.60
2022-10-19T10:03:08.817Z,16.70
2022-10-19T10:09:34.807Z,16.50
2022-10-19T10:12:04.452Z,16.90
2022-10-19T10:14:39.589Z,16.90
2022-10-19T10:17:18.679Z,17.10
2022-10-19T10:20:05.480Z,17.10
2022-10-19T10:22:38.820Z,17.10
2022-10-19T10:25:18.772Z,17.30
2022-10-19T10:28:08.995Z,16.60
2022-10-19T10:30:47.137Z,16.40
2022-10-19T10:33:44.655Z,16.30
2022-10-19T10:36:31.069Z,15.20
2022-10-19T10:39:31.252Z,16.00
2022-10-19T10:42:09.848Z,16.00
2022-10-19T10:44:39.007Z,15.80
2022-10-19T10:47:28.864Z,16.70
2022-10-19T10:50:06.768Z,16.30
2022-10-19T10:53:33.567Z,16.10
2022-10-19T10:56:05.153Z,16.20
2022-10-19T10:58:38.908Z,16.40
2022-10-19T11:01:58.530Z,16.50
2022-10-19T11:04:31.670Z,16.40
2022-10-19T11:07:08.460Z,17.10
2022-10-19T11:09:42.537Z,17.20
2022-10-19T11:12:23.391Z,16.30
2022-10-19T11:15:00.829Z,16.40
2022-10-19T11:17:38.154Z,17.10
2022-10-19T11:20:07.667Z,16.10
2022-10-19T11:23:06.547Z,16.10
2022-10-19T11:26:09.494Z,17.00
2022-10-19T11:29:11.154Z,16.20
2022-10-19T11:32:22.850Z,17.00
2022-10-19T11:35:25.833Z,16.20
2022-10-19T11:38:22.588Z,16.40
2022-10-19T11:41:17.886Z,16.50
2022-10-19T11:47:20.391Z,16.60
2022-10-19T11:50:44.079Z,15.70
2022-10-19T11:53:53.058Z,16.50
2022-10-19T11:57:05.528Z,16.40
2022-10-19T12:00:08.230Z,16.60
2022-10-19T12:03:22.695Z,16.80
2022-10-19T12:06:25.528Z,18.20
2022-10-19T12:09:33.822Z,17.10
2022-10-19T12:15:20.682Z,17.30
2022-10-19T12:17:50.472Z,17.10
2022-10-19T12:20:28.854Z,17.10
2022-10-19T12:22:58.843Z,17.70
2022-10-19T12:28:33.839Z,16.90
2022-10-19T12:31:02.773Z,16.90
2022-10-19T12:33:44.331Z,18.20
2022-10-19T12:39:23.946Z,17.10
2022-10-19T12:42:24.000Z,17.60
2022-10-19T12:45:55.347Z,17.00
2022-10-19T12:48:30.192Z,17.30
2022-10-19T12:51:02.834Z,17.20
2022-10-19T12:53:38.740Z,17.30
2022-10-19T12:56:47.293Z,18.50
2022-10-19T12:59:50.946Z,17.50
2022-10-19T13:05:00.748Z,18.00
2022-10-19T13:07:30.806Z,18.00
2022-10-19T13:10:02.380Z,17.70
2022-10-19T13:12:50.088Z,17.80
2022-10-19T13:15:38.718Z,18.00
2022-10-19T13:19:02.487Z,18.10
2022-10-19T13:22:05.141Z,18.10
2022-10-19T13:24:35.755Z,17.60
2022-10-19T13:27:03.031Z,17.70
2022-10-19T13:29:42.904Z,17.60
2022-10-19T13:33:03.531Z,17.30
2022-10-19T13:35:39.054Z,17.00
2022-10-19T13:38:24.538Z,17.00
2022-10-19T13:40:51.297Z,16.80
2022-10-19T13:43:38.434Z,17.10
2022-10-19T13:46:05.674Z,17.00
2022-10-19T13:49:08.762Z,17.00
2022-10-19T13:51:47.355Z,17.10
2022-10-19T13:54:56.436Z,16.90
2022-10-19T13:57:54.167Z,16.90
2022-10-19T14:00:55.049Z,17.00
2022-10-19T14:06:59.017Z,16.70
2022-10-19T14:09:29.066Z,16.60
2022-10-19T14:12:34.882Z,16.60
2022-10-19T14:15:11.431Z,16.70
2022-10-19T14:18:02.371Z,17.40
2022-10-19T14:20:39.314Z,16.50
2022-10-19T14:23:43.855Z,16.40
2022-10-19T14:26:26.682Z,16.60
2022-10-19T14:29:16.921Z,17.40
2022-10-19T14:31:45.618Z,16.60
2022-10-19T14:37:02.640Z,16.40
2022-10-19T14:39:35.615Z,16.40
2022-10-19T14:42:09.368Z,17.50
2022-10-19T14:44:38.831Z,17.20
2022-10-19T14:47:30.643Z,16.40
2022-10-19T14:49:57.620Z,16.40
2022-10-19T14:54:56.507Z,16.40
2022-10-19T14:57:38.588Z,16.40
2022-10-19T15:00:13.214Z,17.30
2022-10-19T15:02:48.824Z,16.50
2022-10-19T15:05:47.138Z,17.30
2022-10-19T15:08:40.117Z,16.40
2022-10-19T15:11:07.984Z,16.70
2022-10-19T15:13:41.567Z,16.80
2022-10-19T15:16:44.778Z,16.70
2022-10-19T15:19:31.950Z,16.60
2022-10-19T15:22:14.832Z,17.60
2022-10-19T15:24:55.788Z,16.30
2022-10-19T15:27:29.758Z,16.20
2022-10-19T15:30:27.773Z,16.30
2022-10-19T15:33:03.065Z,16.00
2022-10-19T15:35:45.075Z,16.00
2022-10-19T15:38:27.713Z,15.70
2022-10-19T15:41:17.020Z,17.80
2022-10-19T15:43:47.463Z,15.90
2022-10-19T15:46:22.284Z,15.70
2022-10-19T15:48:55.242Z,15.10
2022-10-19T15:51:25.936Z,16.00
2022-10-19T15:53:55.551Z,15.90
2022-10-19T15:56:25.352Z,15.40
2022-10-19T15:59:17.582Z,15.30
2022-10-19T16:01:45.696Z,15.90
2022-10-19T16:04:12.512Z,15.60
2022-10-19T16:06:41.887Z,15.70
2022-10-19T16:09:16.473Z,15.10
2022-10-19T16:11:46.826Z,15.70
2022-10-19T16:14:18.964Z,15.00
2022-10-19T16:16:54.853Z,14.90
2022-10-19T16:19:21.801Z,14.80
2022-10-19T16:21:50.437Z,15.10
2022-10-19T16:24:17.322Z,15.20
2022-10-19T16:26:44.187Z,15.30
2022-10-19T16:30:10.533Z,15.00
2022-10-19T16:32:38.148Z,14.50
2022-10-19T16:35:11.806Z,15.30
2022-10-19T16:40:54.671Z,14.20
2022-10-19T16:43:43.800Z,14.40
2022-10-19T16:46:11.182Z,14.20
2022-10-19T16:48:56.695Z,14.00
2022-10-19T16:52:11.689Z,14.00
2022-10-19T16:57:26.521Z,13.90
2022-10-19T17:02:22.633Z,13.90
2022-10-19T17:04:50.299Z,13.90
2022-10-19T17:07:22.057Z,13.10
2022-10-19T17:09:52.177Z,14.00
2022-10-19T17:13:06.873Z,14.60
2022-10-19T17:15:42.905Z,14.00
2022-10-19T17:18:20.282Z,14.30
2022-10-19T17:20:47.180Z,14.00
2022-10-19T17:23:21.549Z,14.10
2022-10-19T17:25:55.364Z,14.40
2022-10-19T17:28:28.191Z,13.80
2022-10-19T17:30:55.626Z,14.00
2022-10-19T17:33:28.636Z,14.60
2022-10-19T17:36:36.064Z,13.90
2022-10-19T17:39:07.955Z,13.90
2022-10-19T17:41:37.991Z,13.80
2022-10-19T17:44:05.676Z,13.40
2022-10-19T17:46:34.570Z,13.80
2022-10-19T17:49:02.268Z,14.10
2022-10-19T17:51:36.023Z,13.60
2022-10-19T17:54:08.876Z,14.00
2022-10-19T17:56:37.142Z,13.40
2022-10-19T17:59:04.784Z,14.40
2022-10-19T18:01:31.910Z,13.30
2022-10-19T18:03:59.038Z,13.30
2022-10-19T18:06:29.871Z,13.40
2022-10-19T18:08:59.053Z,13.20
2022-10-19T18:11:32.001Z,14.00
2022-10-19T18:14:04.299Z,13.20
2022-10-19T18:16:34.054Z,13.90
2022-10-19T18:19:02.472Z,13.00
2022-10-19T18:21:33.205Z,14.10
2022-10-19T18:24:02.107Z,13.10
2022-10-19T18:26:31.734Z,12.80
2022-10-19T18:29:08.462Z,13.10
2022-10-19T18:31:38.616Z,13.20
2022-10-19T18:34:07.711Z,13.80
2022-10-19T18:36:34.974Z,14.10
2022-10-19T18:39:14.587Z,13.90
2022-10-19T18:41:41.927Z,13.10
2022-10-19T18:44:13.258Z,13.00
2022-10-19T18:46:45.619Z,13.30
2022-10-19T18:49:13.191Z,13.30
2022-10-19T18:51:40.264Z,14.20
2022-10-19T18:54:07.288Z,13.00
2022-10-19T18:56:36.607Z,12.90
2022-10-19T18:59:07.980Z,12.90
2022-10-19T19:01:35.034Z,13.80
2022-10-19T19:04:09.073Z,13.50
2022-10-19T19:06:37.495Z,13.00
2022-10-19T19:09:08.064Z,12.90
2022-10-19T19:11:37.627Z,13.40
2022-10-19T19:14:12.280Z,13.60
2022-10-19T19:16:40.420Z,13.70
2022-10-19T19:19:08.397Z,13.50
2022-10-19T19:21:36.849Z,12.60
2022-10-19T19:24:06.577Z,12.50
2022-10-19T19:26:37.256Z,12.40
2022-10-19T19:29:10.766Z,13.30
2022-10-19T19:31:39.380Z,12.30
2022-10-19T19:34:07.868Z,12.20
2022-10-19T19:36:35.307Z,12.30
2022-10-19T19:39:02.767Z,12.30
2022-10-19T19:41:31.307Z,13.20
2022-10-19T19:43:59.053Z,12.30
2022-10-19T19:46:26.675Z,12.20
2022-10-19T19:49:00.346Z,12.10
2022-10-19T19:51:28.248Z,12.10
2022-10-19T19:53:55.148Z,12.00
2022-10-19T19:56:22.031Z,12.90
2022-10-19T19:58:53.651Z,12.00
2022-10-19T20:01:21.433Z,13.10
2022-10-19T20:03:48.599Z,12.20
2022-10-19T20:06:19.631Z,12.70
2022-10-19T20:08:49.138Z,12.10
2022-10-19T20:11:17.651Z,12.50
2022-10-19T20:13:49.293Z,12.30
2022-10-19T20:16:22.713Z,10.80
2022-10-19T20:18:55.792Z,12.50
2022-10-19T20:21:25.974Z,11.90
2022-10-19T20:23:52.882Z,11.90
2022-10-19T20:26:24.083Z,11.90
2022-10-19T20:28:52.087Z,11.90
2022-10-19T20:31:20.062Z,12.00
2022-10-19T20:33:48.032Z,12.70
2022-10-19T20:36:18.215Z,10.80
2022-10-19T20:38:51.378Z,11.40
2022-10-19T20:41:19.818Z,11.80
2022-10-19T20:43:46.857Z,11.90
2022-10-19T20:46:17.818Z,11.50
2022-10-19T20:48:45.520Z,11.50
2022-10-19T20:51:18.169Z,12.30
2022-10-19T20:53:46.736Z,11.40
2022-10-19T20:56:16.297Z,12.30
2022-10-19T20:58:44.036Z,11.00
2022-10-19T21:01:13.279Z,11.20
2022-10-19T21:03:46.195Z,11.70
2022-10-19T21:06:13.105Z,11.20
2022-10-19T21:08:39.941Z,11.50
2022-10-19T21:11:27.514Z,12.40
2022-10-19T21:14:00.200Z,12.40
2022-10-19T21:16:29.988Z,12.30
2022-10-19T21:18:57.298Z,11.80
2022-10-19T21:21:28.955Z,12.40
2022-10-19T21:23:58.460Z,12.20
2022-10-19T21:26:26.656Z,11.60
2022-10-19T21:28:53.677Z,11.10
2022-10-19T21:31:22.257Z,11.80
2022-10-19T21:33:49.630Z,12.00
2022-10-19T21:36:16.768Z,10.70
2022-10-19T21:38:43.838Z,10.90
2022-10-19T21:41:12.938Z,11.90
2022-10-19T21:43:40.008Z,11.30
2022-10-19T21:46:09.360Z,11.80
2022-10-19T21:48:36.650Z,11.10
2022-10-19T21:51:36.545Z,11.40
2022-10-19T21:54:05.369Z,10.80
2022-10-19T21:56:33.140Z,10.70
2022-10-19T21:58:59.936Z,11.40
2022-10-19T22:01:28.550Z,11.60
2022-10-19T22:04:00.382Z,10.90
2022-10-19T22:06:28.879Z,11.00
2022-10-19T22:08:55.938Z,10.70
2022-10-19T22:11:23.724Z,11.10
2022-10-19T22:13:57.204Z,11.10
2022-10-19T22:16:25.278Z,11.10
2022-10-19T22:18:52.874Z,11.30
2022-10-19T22:21:25.530Z,11.90
2022-10-19T22:23:54.197Z,11.20
2022-10-19T22:26:24.400Z,11.10
2022-10-19T22:28:51.453Z,10.90
2022-10-19T22:31:18.221Z,10.90
2022-10-19T22:33:45.208Z,10.80
2022-10-19T22:36:13.071Z,10.70
2022-10-19T22:38:40.519Z,10.70
2022-10-19T22:41:07.327Z,10.60
2022-10-19T22:43:34.015Z,10.70
2022-10-19T22:46:00.902Z,10.60
2022-10-19T22:48:27.626Z,10.50
2022-10-19T22:50:55.287Z,10.50
2022-10-19T22:53:23.081Z,10.40
2022-10-19T22:55:50.432Z,11.50
2022-10-19T22:58:18.110Z,10.40
2022-10-19T23:00:44.861Z,10.40
2022-10-19T23:03:11.674Z,11.30
2022-10-19T23:05:38.348Z,10.30
2022-10-19T23:08:05.256Z,10.40
2022-10-19T23:10:32.670Z,10.40
2022-10-19T23:12:59.364Z,10.30
2022-10-19T23:15:26.353Z,10.50
2022-10-19T23:17:53.039Z,10.30
2022-10-19T23:20:19.755Z,10.20
2022-10-19T23:22:47.092Z,10.40
2022-10-19T23:25:13.715Z,10.60
2022-10-19T23:27:45.667Z,10.60
2022-10-19T23:30:12.409Z,10.60
2022-10-19T23:32:39.412Z,10.40
2022-10-19T23:35:07.416Z,10.30
2022-10-19T23:37:35.244Z,10.30
2022-10-19T23:40:02.611Z,10.30
2022-10-19T23:42:29.325Z,10.10
2022-10-19T23:44:56.001Z,10.00
2022-10-19T23:47:22.743Z,9.80
2022-10-19T23:49:49.409Z,9.90
2022-10-19T23:52:16.097Z,9.90
2022-10-19T23:54:42.733Z,9.90
2022-10-19T23:57:09.414Z,9.80
2022-10-19T23:59:36.127Z,9.80
